sensor_id;sensor_type;location;lat;lon;timestamp;P1;durP1;ratioP1;P2;durP2;ratioP2
32505;SDS011;18955;51.224;8.482;2023-07-16T00:00:20;2.55;;;1.40;;
32505;SDS011;18955;51.224;8.482;2023-07-16T00:02:52;3.10;;;1.55;;
32505;SDS011;18955;51.224;8.482;2023-07-16T00:05:19;2.83;;;1.35;;
32505;SDS011;18955;51.224;8.482;2023-07-16T00:07:45;5.22;;;1.40;;
32505;SDS011;18955;51.224;8.482;2023-07-16T00:10:11;4.90;;;1.55;;
32505;SDS011;18955;51.224;8.482;2023-07-16T00:12:37;2.13;;;1.30;;
32505;SDS011;18955;51.224;8.482;2023-07-16T00:15:04;1.80;;;1.35;;
32505;SDS011;18955;51.224;8.482;2023-07-16T00:17:32;3.67;;;1.60;;
32505;SDS011;18955;51.224;8.482;2023-07-16T00:19:59;2.50;;;1.40;;
32505;SDS011;18955;51.224;8.482;2023-07-16T00:22:25;3.78;;;1.58;;
32505;SDS011;18955;51.224;8.482;2023-07-16T00:24:51;3.70;;;0.98;;
32505;SDS011;18955;51.224;8.482;2023-07-16T00:27:18;1.95;;;1.50;;
32505;SDS011;18955;51.224;8.482;2023-07-16T00:29:44;2.45;;;1.38;;
32505;SDS011;18955;51.224;8.482;2023-07-16T00:32:10;2.72;;;1.50;;
32505;SDS011;18955;51.224;8.482;2023-07-16T00:34:37;2.10;;;1.50;;
32505;SDS011;18955;51.224;8.482;2023-07-16T00:37:03;3.95;;;1.30;;
32505;SDS011;18955;51.224;8.482;2023-07-16T00:39:29;4.00;;;1.75;;
32505;SDS011;18955;51.224;8.482;2023-07-16T00:41:56;3.13;;;1.38;;
32505;SDS011;18955;51.224;8.482;2023-07-16T00:44:22;1.60;;;1.40;;
32505;SDS011;18955;51.224;8.482;2023-07-16T00:46:49;5.25;;;1.40;;
32505;SDS011;18955;51.224;8.482;2023-07-16T00:49:15;2.97;;;1.33;;
32505;SDS011;18955;51.224;8.482;2023-07-16T00:51:42;2.17;;;1.20;;
32505;SDS011;18955;51.224;8.482;2023-07-16T00:54:08;3.80;;;1.50;;
32505;SDS011;18955;51.224;8.482;2023-07-16T00:56:34;8.23;;;1.35;;
32505;SDS011;18955;51.224;8.482;2023-07-16T00:59:02;5.32;;;1.35;;
32505;SDS011;18955;51.224;8.482;2023-07-16T01:01:28;4.18;;;1.58;;
32505;SDS011;18955;51.224;8.482;2023-07-16T01:03:55;2.88;;;1.35;;
32505;SDS011;18955;51.224;8.482;2023-07-16T01:06:22;4.10;;;1.60;;
32505;SDS011;18955;51.224;8.482;2023-07-16T01:08:57;1.73;;;1.30;;
32505;SDS011;18955;51.224;8.482;2023-07-16T01:11:28;1.58;;;1.23;;
32505;SDS011;18955;51.224;8.482;2023-07-16T01:13:55;4.03;;;1.20;;
32505;SDS011;18955;51.224;8.482;2023-07-16T01:16:23;4.43;;;1.70;;
32505;SDS011;18955;51.224;8.482;2023-07-16T01:18:50;3.20;;;1.40;;
32505;SDS011;18955;51.224;8.482;2023-07-16T01:21:18;3.10;;;1.25;;
32505;SDS011;18955;51.224;8.482;2023-07-16T01:29:29;3.20;;;1.40;;
32505;SDS011;18955;51.224;8.482;2023-07-16T01:32:07;4.22;;;1.70;;
32505;SDS011;18955;51.224;8.482;2023-07-16T01:34:37;4.15;;;1.52;;
32505;SDS011;18955;51.224;8.482;2023-07-16T01:37:04;6.22;;;1.55;;
32505;SDS011;18955;51.224;8.482;2023-07-16T01:39:31;1.77;;;1.60;;
32505;SDS011;18955;51.224;8.482;2023-07-16T01:42:00;6.22;;;1.90;;
32505;SDS011;18955;51.224;8.482;2023-07-16T01:44:27;2.47;;;1.25;;
32505;SDS011;18955;51.224;8.482;2023-07-16T01:49:46;3.88;;;1.27;;
32505;SDS011;18955;51.224;8.482;2023-07-16T01:52:13;4.35;;;1.63;;
32505;SDS011;18955;51.224;8.482;2023-07-16T01:54:39;4.15;;;1.67;;
32505;SDS011;18955;51.224;8.482;2023-07-16T01:57:06;3.15;;;1.75;;
32505;SDS011;18955;51.224;8.482;2023-07-16T01:59:33;2.22;;;1.40;;
32505;SDS011;18955;51.224;8.482;2023-07-16T02:01:59;3.92;;;1.48;;
32505;SDS011;18955;51.224;8.482;2023-07-16T02:04:25;5.30;;;1.70;;
32505;SDS011;18955;51.224;8.482;2023-07-16T02:06:51;2.70;;;1.70;;
32505;SDS011;18955;51.224;8.482;2023-07-16T02:09:20;6.63;;;1.90;;
32505;SDS011;18955;51.224;8.482;2023-07-16T02:11:46;3.72;;;1.52;;
32505;SDS011;18955;51.224;8.482;2023-07-16T02:14:13;3.20;;;1.30;;
32505;SDS011;18955;51.224;8.482;2023-07-16T02:16:40;2.40;;;1.42;;
32505;SDS011;18955;51.224;8.482;2023-07-16T02:19:06;4.95;;;1.42;;
32505;SDS011;18955;51.224;8.482;2023-07-16T02:21:34;1.92;;;1.10;;
32505;SDS011;18955;51.224;8.482;2023-07-16T02:24:01;7.25;;;1.67;;
32505;SDS011;18955;51.224;8.482;2023-07-16T02:26:27;5.60;;;1.70;;
32505;SDS011;18955;51.224;8.482;2023-07-16T02:28:53;5.80;;;1.23;;
32505;SDS011;18955;51.224;8.482;2023-07-16T02:31:21;3.15;;;1.50;;
32505;SDS011;18955;51.224;8.482;2023-07-16T02:33:47;4.40;;;1.50;;
32505;SDS011;18955;51.224;8.482;2023-07-16T02:36:13;5.22;;;1.33;;
32505;SDS011;18955;51.224;8.482;2023-07-16T02:38:41;2.95;;;1.38;;
32505;SDS011;18955;51.224;8.482;2023-07-16T02:41:07;3.63;;;1.30;;
32505;SDS011;18955;51.224;8.482;2023-07-16T02:43:33;1.30;;;0.85;;
32505;SDS011;18955;51.224;8.482;2023-07-16T02:46:00;4.18;;;1.38;;
32505;SDS011;18955;51.224;8.482;2023-07-16T02:48:28;6.93;;;1.50;;
32505;SDS011;18955;51.224;8.482;2023-07-16T02:50:54;2.95;;;1.38;;
32505;SDS011;18955;51.224;8.482;2023-07-16T02:53:20;4.70;;;1.40;;
32505;SDS011;18955;51.224;8.482;2023-07-16T02:55:46;6.80;;;1.65;;
32505;SDS011;18955;51.224;8.482;2023-07-16T02:58:12;2.83;;;1.25;;
32505;SDS011;18955;51.224;8.482;2023-07-16T03:00:39;5.50;;;1.65;;
32505;SDS011;18955;51.224;8.482;2023-07-16T03:03:05;6.30;;;2.00;;
32505;SDS011;18955;51.224;8.482;2023-07-16T03:05:31;5.65;;;0.95;;
32505;SDS011;18955;51.224;8.482;2023-07-16T03:07:57;2.35;;;1.20;;
32505;SDS011;18955;51.224;8.482;2023-07-16T03:10:24;5.93;;;1.60;;
32505;SDS011;18955;51.224;8.482;2023-07-16T03:12:52;4.13;;;1.50;;
32505;SDS011;18955;51.224;8.482;2023-07-16T03:15:19;5.30;;;1.30;;
32505;SDS011;18955;51.224;8.482;2023-07-16T03:17:45;3.65;;;1.40;;
32505;SDS011;18955;51.224;8.482;2023-07-16T03:20:11;5.72;;;1.60;;
32505;SDS011;18955;51.224;8.482;2023-07-16T03:22:38;4.97;;;1.55;;
32505;SDS011;18955;51.224;8.482;2023-07-16T03:25:05;5.05;;;1.45;;
32505;SDS011;18955;51.224;8.482;2023-07-16T03:27:31;3.97;;;1.15;;
32505;SDS011;18955;51.224;8.482;2023-07-16T03:30:00;3.72;;;1.27;;
32505;SDS011;18955;51.224;8.482;2023-07-16T03:34:53;4.35;;;1.70;;
32505;SDS011;18955;51.224;8.482;2023-07-16T03:37:19;3.65;;;1.38;;
32505;SDS011;18955;51.224;8.482;2023-07-16T03:39:47;3.72;;;1.52;;
32505;SDS011;18955;51.224;8.482;2023-07-16T03:42:13;4.82;;;1.83;;
32505;SDS011;18955;51.224;8.482;2023-07-16T03:44:39;4.47;;;1.80;;
32505;SDS011;18955;51.224;8.482;2023-07-16T03:47:06;5.07;;;1.50;;
32505;SDS011;18955;51.224;8.482;2023-07-16T03:49:32;6.35;;;1.80;;
32505;SDS011;18955;51.224;8.482;2023-07-16T03:51:59;2.65;;;1.52;;
32505;SDS011;18955;51.224;8.482;2023-07-16T03:54:26;4.35;;;1.35;;
32505;SDS011;18955;51.224;8.482;2023-07-16T03:56:52;4.28;;;1.20;;
32505;SDS011;18955;51.224;8.482;2023-07-16T03:59:18;1.88;;;1.08;;
32505;SDS011;18955;51.224;8.482;2023-07-16T04:04:11;2.17;;;1.33;;
32505;SDS011;18955;51.224;8.482;2023-07-16T04:06:37;3.00;;;1.05;;
32505;SDS011;18955;51.224;8.482;2023-07-16T04:09:03;9.30;;;1.92;;
32505;SDS011;18955;51.224;8.482;2023-07-16T04:11:30;3.58;;;1.38;;
32505;SDS011;18955;51.224;8.482;2023-07-16T04:13:56;3.92;;;1.45;;
32505;SDS011;18955;51.224;8.482;2023-07-16T04:16:22;3.97;;;1.60;;
32505;SDS011;18955;51.224;8.482;2023-07-16T04:18:48;3.95;;;1.50;;
32505;SDS011;18955;51.224;8.482;2023-07-16T04:21:14;5.57;;;1.60;;
32505;SDS011;18955;51.224;8.482;2023-07-16T04:23:40;3.75;;;1.50;;
32505;SDS011;18955;51.224;8.482;2023-07-16T04:26:07;2.63;;;0.88;;
32505;SDS011;18955;51.224;8.482;2023-07-16T04:28:33;7.15;;;1.60;;
32505;SDS011;18955;51.224;8.482;2023-07-16T04:30:59;7.25;;;1.63;;
32505;SDS011;18955;51.224;8.482;2023-07-16T04:33:25;7.25;;;1.60;;
32505;SDS011;18955;51.224;8.482;2023-07-16T04:35:51;7.88;;;1.65;;
32505;SDS011;18955;51.224;8.482;2023-07-16T04:38:17;4.95;;;1.55;;
32505;SDS011;18955;51.224;8.482;2023-07-16T04:40:44;3.28;;;1.50;;
32505;SDS011;18955;51.224;8.482;2023-07-16T04:43:10;6.18;;;1.70;;
32505;SDS011;18955;51.224;8.482;2023-07-16T04:45:36;4.20;;;1.50;;
32505;SDS011;18955;51.224;8.482;2023-07-16T04:48:02;3.58;;;1.70;;
32505;SDS011;18955;51.224;8.482;2023-07-16T04:50:29;7.07;;;1.58;;
32505;SDS011;18955;51.224;8.482;2023-07-16T04:52:55;3.13;;;1.52;;
32505;SDS011;18955;51.224;8.482;2023-07-16T04:55:21;1.70;;;0.88;;
32505;SDS011;18955;51.224;8.482;2023-07-16T04:57:47;6.47;;;1.65;;
32505;SDS011;18955;51.224;8.482;2023-07-16T05:00:13;4.53;;;0.90;;
32505;SDS011;18955;51.224;8.482;2023-07-16T05:02:40;4.47;;;1.70;;
32505;SDS011;18955;51.224;8.482;2023-07-16T05:05:06;2.58;;;1.30;;
32505;SDS011;18955;51.224;8.482;2023-07-16T05:07:32;5.28;;;1.30;;
32505;SDS011;18955;51.224;8.482;2023-07-16T05:09:59;3.92;;;1.50;;
32505;SDS011;18955;51.224;8.482;2023-07-16T05:12:25;5.30;;;1.60;;
32505;SDS011;18955;51.224;8.482;2023-07-16T05:14:51;7.72;;;1.40;;
32505;SDS011;18955;51.224;8.482;2023-07-16T05:17:17;6.05;;;1.70;;
32505;SDS011;18955;51.224;8.482;2023-07-16T05:19:43;4.68;;;1.45;;
32505;SDS011;18955;51.224;8.482;2023-07-16T05:22:10;4.20;;;1.77;;
32505;SDS011;18955;51.224;8.482;2023-07-16T05:24:36;3.25;;;1.50;;
32505;SDS011;18955;51.224;8.482;2023-07-16T05:27:02;4.15;;;1.75;;
32505;SDS011;18955;51.224;8.482;2023-07-16T05:31:55;6.90;;;2.20;;
32505;SDS011;18955;51.224;8.482;2023-07-16T05:34:21;2.80;;;1.08;;
32505;SDS011;18955;51.224;8.482;2023-07-16T05:36:47;5.97;;;1.90;;
32505;SDS011;18955;51.224;8.482;2023-07-16T05:39:13;5.32;;;1.60;;
32505;SDS011;18955;51.224;8.482;2023-07-16T05:41:40;10.35;;;1.90;;
32505;SDS011;18955;51.224;8.482;2023-07-16T05:46:33;8.55;;;1.60;;
32505;SDS011;18955;51.224;8.482;2023-07-16T05:51:25;3.45;;;1.60;;
32505;SDS011;18955;51.224;8.482;2023-07-16T05:53:52;3.88;;;1.40;;
32505;SDS011;18955;51.224;8.482;2023-07-16T05:56:18;7.95;;;2.13;;
32505;SDS011;18955;51.224;8.482;2023-07-16T05:58:44;6.78;;;1.42;;
32505;SDS011;18955;51.224;8.482;2023-07-16T06:01:10;9.95;;;2.33;;
32505;SDS011;18955;51.224;8.482;2023-07-16T06:03:36;8.63;;;1.77;;
32505;SDS011;18955;51.224;8.482;2023-07-16T06:06:03;8.30;;;2.22;;
32505;SDS011;18955;51.224;8.482;2023-07-16T06:08:29;6.15;;;1.65;;
32505;SDS011;18955;51.224;8.482;2023-07-16T06:10:55;4.90;;;1.77;;
32505;SDS011;18955;51.224;8.482;2023-07-16T06:13:21;5.75;;;2.03;;
32505;SDS011;18955;51.224;8.482;2023-07-16T06:15:47;7.88;;;2.60;;
32505;SDS011;18955;51.224;8.482;2023-07-16T06:18:14;7.85;;;2.45;;
32505;SDS011;18955;51.224;8.482;2023-07-16T06:20:49;7.78;;;2.55;;
32505;SDS011;18955;51.224;8.482;2023-07-16T06:23:17;9.52;;;2.80;;
32505;SDS011;18955;51.224;8.482;2023-07-16T06:25:43;6.30;;;2.33;;
32505;SDS011;18955;51.224;8.482;2023-07-16T06:28:14;8.18;;;2.15;;
32505;SDS011;18955;51.224;8.482;2023-07-16T06:30:40;5.75;;;2.05;;
32505;SDS011;18955;51.224;8.482;2023-07-16T06:33:07;7.90;;;2.83;;
32505;SDS011;18955;51.224;8.482;2023-07-16T06:35:34;10.02;;;2.55;;
32505;SDS011;18955;51.224;8.482;2023-07-16T06:38:01;4.95;;;2.20;;
32505;SDS011;18955;51.224;8.482;2023-07-16T06:40:28;6.00;;;2.22;;
32505;SDS011;18955;51.224;8.482;2023-07-16T06:42:54;7.15;;;2.72;;
32505;SDS011;18955;51.224;8.482;2023-07-16T06:45:21;7.18;;;2.78;;
32505;SDS011;18955;51.224;8.482;2023-07-16T06:47:47;3.65;;;1.60;;
32505;SDS011;18955;51.224;8.482;2023-07-16T06:50:14;7.57;;;2.88;;
32505;SDS011;18955;51.224;8.482;2023-07-16T06:52:40;8.75;;;2.97;;
32505;SDS011;18955;51.224;8.482;2023-07-16T06:55:06;13.48;;;2.72;;
32505;SDS011;18955;51.224;8.482;2023-07-16T06:57:33;9.75;;;2.70;;
32505;SDS011;18955;51.224;8.482;2023-07-16T06:59:59;6.13;;;2.80;;
32505;SDS011;18955;51.224;8.482;2023-07-16T07:02:25;7.43;;;2.60;;
32505;SDS011;18955;51.224;8.482;2023-07-16T07:04:54;4.97;;;2.40;;
32505;SDS011;18955;51.224;8.482;2023-07-16T07:07:20;4.88;;;2.22;;
32505;SDS011;18955;51.224;8.482;2023-07-16T07:09:49;6.93;;;2.25;;
32505;SDS011;18955;51.224;8.482;2023-07-16T07:12:15;5.32;;;2.10;;
32505;SDS011;18955;51.224;8.482;2023-07-16T07:14:41;5.93;;;2.53;;
32505;SDS011;18955;51.224;8.482;2023-07-16T07:17:07;6.93;;;2.25;;
32505;SDS011;18955;51.224;8.482;2023-07-16T07:19:34;6.65;;;2.38;;
32505;SDS011;18955;51.224;8.482;2023-07-16T07:22:00;6.60;;;2.42;;
32505;SDS011;18955;51.224;8.482;2023-07-16T07:24:26;4.45;;;1.58;;
32505;SDS011;18955;51.224;8.482;2023-07-16T07:26:52;5.13;;;2.28;;
32505;SDS011;18955;51.224;8.482;2023-07-16T07:29:18;7.88;;;2.70;;
32505;SDS011;18955;51.224;8.482;2023-07-16T07:31:44;6.72;;;2.80;;
32505;SDS011;18955;51.224;8.482;2023-07-16T07:34:11;6.43;;;2.72;;
32505;SDS011;18955;51.224;8.482;2023-07-16T07:36:37;8.85;;;2.60;;
32505;SDS011;18955;51.224;8.482;2023-07-16T07:39:03;9.60;;;2.60;;
32505;SDS011;18955;51.224;8.482;2023-07-16T07:41:29;9.05;;;3.08;;
32505;SDS011;18955;51.224;8.482;2023-07-16T07:43:55;4.68;;;2.40;;
32505;SDS011;18955;51.224;8.482;2023-07-16T07:46:22;6.88;;;2.80;;
32505;SDS011;18955;51.224;8.482;2023-07-16T07:48:48;7.45;;;2.85;;
32505;SDS011;18955;51.224;8.482;2023-07-16T07:51:14;8.10;;;3.00;;
32505;SDS011;18955;51.224;8.482;2023-07-16T07:53:40;8.68;;;2.90;;
32505;SDS011;18955;51.224;8.482;2023-07-16T07:56:07;6.82;;;2.75;;
32505;SDS011;18955;51.224;8.482;2023-07-16T07:58:33;6.68;;;2.80;;
32505;SDS011;18955;51.224;8.482;2023-07-16T08:01:06;7.50;;;3.08;;
32505;SDS011;18955;51.224;8.482;2023-07-16T08:03:33;7.07;;;2.88;;
32505;SDS011;18955;51.224;8.482;2023-07-16T08:06:00;9.52;;;3.30;;
32505;SDS011;18955;51.224;8.482;2023-07-16T08:08:26;6.20;;;2.70;;
32505;SDS011;18955;51.224;8.482;2023-07-16T08:10:53;8.57;;;3.55;;
32505;SDS011;18955;51.224;8.482;2023-07-16T08:13:20;5.72;;;2.70;;
32505;SDS011;18955;51.224;8.482;2023-07-16T08:15:46;10.85;;;3.35;;
32505;SDS011;18955;51.224;8.482;2023-07-16T08:18:13;9.05;;;2.70;;
32505;SDS011;18955;51.224;8.482;2023-07-16T08:20:39;8.32;;;3.60;;
32505;SDS011;18955;51.224;8.482;2023-07-16T08:23:08;5.32;;;2.83;;
32505;SDS011;18955;51.224;8.482;2023-07-16T08:25:35;8.70;;;3.63;;
32505;SDS011;18955;51.224;8.482;2023-07-16T08:28:04;5.25;;;2.22;;
32505;SDS011;18955;51.224;8.482;2023-07-16T08:30:31;7.07;;;3.03;;
32505;SDS011;18955;51.224;8.482;2023-07-16T08:32:58;8.23;;;3.28;;
32505;SDS011;18955;51.224;8.482;2023-07-16T08:35:24;6.75;;;2.90;;
32505;SDS011;18955;51.224;8.482;2023-07-16T08:37:51;9.07;;;3.55;;
32505;SDS011;18955;51.224;8.482;2023-07-16T08:40:17;6.90;;;3.47;;
32505;SDS011;18955;51.224;8.482;2023-07-16T08:42:46;6.65;;;3.45;;
32505;SDS011;18955;51.224;8.482;2023-07-16T08:45:14;12.18;;;3.72;;
32505;SDS011;18955;51.224;8.482;2023-07-16T08:47:41;5.63;;;3.08;;
32505;SDS011;18955;51.224;8.482;2023-07-16T08:50:08;6.22;;;3.10;;
32505;SDS011;18955;51.224;8.482;2023-07-16T08:52:35;7.53;;;3.13;;
32505;SDS011;18955;51.224;8.482;2023-07-16T08:55:02;7.38;;;3.00;;
32505;SDS011;18955;51.224;8.482;2023-07-16T08:57:29;6.30;;;2.97;;
32505;SDS011;18955;51.224;8.482;2023-07-16T08:59:56;7.45;;;3.05;;
32505;SDS011;18955;51.224;8.482;2023-07-16T09:02:23;8.38;;;3.22;;
32505;SDS011;18955;51.224;8.482;2023-07-16T09:04:50;6.97;;;3.17;;
32505;SDS011;18955;51.224;8.482;2023-07-16T09:07:20;6.47;;;3.15;;
32505;SDS011;18955;51.224;8.482;2023-07-16T09:09:56;5.55;;;3.25;;
32505;SDS011;18955;51.224;8.482;2023-07-16T09:12:25;6.50;;;3.20;;
32505;SDS011;18955;51.224;8.482;2023-07-16T09:17:22;7.00;;;3.00;;
32505;SDS011;18955;51.224;8.482;2023-07-16T09:19:50;6.65;;;3.50;;
32505;SDS011;18955;51.224;8.482;2023-07-16T09:22:17;4.78;;;3.00;;
32505;SDS011;18955;51.224;8.482;2023-07-16T09:24:45;7.63;;;3.17;;
32505;SDS011;18955;51.224;8.482;2023-07-16T09:27:12;6.30;;;3.10;;
32505;SDS011;18955;51.224;8.482;2023-07-16T09:29:39;8.95;;;3.67;;
32505;SDS011;18955;51.224;8.482;2023-07-16T09:32:05;7.60;;;3.05;;
32505;SDS011;18955;51.224;8.482;2023-07-16T09:34:32;7.10;;;3.20;;
32505;SDS011;18955;51.224;8.482;2023-07-16T09:36:58;5.47;;;3.25;;
32505;SDS011;18955;51.224;8.482;2023-07-16T09:39:26;4.65;;;2.90;;
32505;SDS011;18955;51.224;8.482;2023-07-16T09:41:53;5.55;;;3.10;;
32505;SDS011;18955;51.224;8.482;2023-07-16T09:44:22;6.28;;;3.38;;
32505;SDS011;18955;51.224;8.482;2023-07-16T09:46:48;5.88;;;3.65;;
32505;SDS011;18955;51.224;8.482;2023-07-16T09:49:14;7.55;;;3.25;;
32505;SDS011;18955;51.224;8.482;2023-07-16T09:51:42;5.72;;;3.40;;
32505;SDS011;18955;51.224;8.482;2023-07-16T09:54:10;8.88;;;4.15;;
32505;SDS011;18955;51.224;8.482;2023-07-16T09:56:47;11.05;;;3.47;;
32505;SDS011;18955;51.224;8.482;2023-07-16T09:59:16;9.57;;;2.78;;
32505;SDS011;18955;51.224;8.482;2023-07-16T10:01:45;6.97;;;3.30;;
32505;SDS011;18955;51.224;8.482;2023-07-16T10:04:16;10.95;;;3.53;;
32505;SDS011;18955;51.224;8.482;2023-07-16T10:06:57;7.43;;;3.90;;
32505;SDS011;18955;51.224;8.482;2023-07-16T10:09:34;9.30;;;3.20;;
32505;SDS011;18955;51.224;8.482;2023-07-16T10:14:46;5.22;;;3.08;;
32505;SDS011;18955;51.224;8.482;2023-07-16T10:17:17;7.28;;;3.67;;
32505;SDS011;18955;51.224;8.482;2023-07-16T10:19:46;6.50;;;3.60;;
32505;SDS011;18955;51.224;8.482;2023-07-16T10:22:30;9.13;;;3.60;;
32505;SDS011;18955;51.224;8.482;2023-07-16T10:25:00;9.40;;;3.92;;
32505;SDS011;18955;51.224;8.482;2023-07-16T10:27:27;10.15;;;3.85;;
32505;SDS011;18955;51.224;8.482;2023-07-16T10:29:54;6.95;;;3.42;;
32505;SDS011;18955;51.224;8.482;2023-07-16T10:32:20;7.18;;;3.90;;
32505;SDS011;18955;51.224;8.482;2023-07-16T10:34:47;7.57;;;3.80;;
32505;SDS011;18955;51.224;8.482;2023-07-16T10:37:13;9.38;;;3.35;;
32505;SDS011;18955;51.224;8.482;2023-07-16T10:39:49;6.97;;;4.00;;
32505;SDS011;18955;51.224;8.482;2023-07-16T10:42:16;7.05;;;3.90;;
32505;SDS011;18955;51.224;8.482;2023-07-16T10:44:44;9.93;;;3.53;;
32505;SDS011;18955;51.224;8.482;2023-07-16T10:47:18;7.80;;;3.55;;
32505;SDS011;18955;51.224;8.482;2023-07-16T10:50:05;9.75;;;3.95;;
32505;SDS011;18955;51.224;8.482;2023-07-16T10:52:34;10.77;;;4.22;;
32505;SDS011;18955;51.224;8.482;2023-07-16T10:55:01;9.65;;;3.70;;
32505;SDS011;18955;51.224;8.482;2023-07-16T10:57:28;5.00;;;3.42;;
32505;SDS011;18955;51.224;8.482;2023-07-16T10:59:55;5.32;;;3.72;;
32505;SDS011;18955;51.224;8.482;2023-07-16T11:02:23;7.18;;;3.70;;
32505;SDS011;18955;51.224;8.482;2023-07-16T11:04:50;14.00;;;3.95;;
32505;SDS011;18955;51.224;8.482;2023-07-16T11:07:20;7.10;;;3.92;;
32505;SDS011;18955;51.224;8.482;2023-07-16T11:09:48;6.75;;;3.33;;
32505;SDS011;18955;51.224;8.482;2023-07-16T11:12:15;7.13;;;3.53;;
32505;SDS011;18955;51.224;8.482;2023-07-16T11:14:49;7.00;;;3.58;;
32505;SDS011;18955;51.224;8.482;2023-07-16T11:17:16;6.65;;;3.70;;
32505;SDS011;18955;51.224;8.482;2023-07-16T11:19:46;8.02;;;4.60;;
32505;SDS011;18955;51.224;8.482;2023-07-16T11:22:13;7.28;;;4.35;;
32505;SDS011;18955;51.224;8.482;2023-07-16T11:24:41;10.88;;;3.83;;
32505;SDS011;18955;51.224;8.482;2023-07-16T11:29:56;6.18;;;3.90;;
32505;SDS011;18955;51.224;8.482;2023-07-16T11:32:37;8.98;;;4.07;;
32505;SDS011;18955;51.224;8.482;2023-07-16T11:35:04;8.45;;;4.03;;
32505;SDS011;18955;51.224;8.482;2023-07-16T11:37:32;6.88;;;3.83;;
32505;SDS011;18955;51.224;8.482;2023-07-16T11:42:34;8.23;;;3.63;;
32505;SDS011;18955;51.224;8.482;2023-07-16T11:45:05;15.43;;;4.07;;
32505;SDS011;18955;51.224;8.482;2023-07-16T11:47:40;9.05;;;4.45;;
32505;SDS011;18955;51.224;8.482;2023-07-16T11:50:07;6.57;;;3.72;;
32505;SDS011;18955;51.224;8.482;2023-07-16T11:52:33;8.23;;;4.43;;
32505;SDS011;18955;51.224;8.482;2023-07-16T11:55:00;5.35;;;3.70;;
32505;SDS011;18955;51.224;8.482;2023-07-16T11:57:26;7.93;;;4.03;;
32505;SDS011;18955;51.224;8.482;2023-07-16T11:59:53;9.23;;;3.83;;
32505;SDS011;18955;51.224;8.482;2023-07-16T12:02:19;9.50;;;4.00;;
32505;SDS011;18955;51.224;8.482;2023-07-16T12:04:46;6.03;;;3.75;;
32505;SDS011;18955;51.224;8.482;2023-07-16T12:07:13;13.75;;;4.07;;
32505;SDS011;18955;51.224;8.482;2023-07-16T12:09:40;7.25;;;3.80;;
32505;SDS011;18955;51.224;8.482;2023-07-16T12:12:06;5.30;;;2.40;;
32505;SDS011;18955;51.224;8.482;2023-07-16T12:14:32;19.38;;;3.88;;
32505;SDS011;18955;51.224;8.482;2023-07-16T12:16:59;5.93;;;3.22;;
32505;SDS011;18955;51.224;8.482;2023-07-16T12:19:25;9.15;;;3.55;;
32505;SDS011;18955;51.224;8.482;2023-07-16T12:21:51;6.72;;;3.80;;
32505;SDS011;18955;51.224;8.482;2023-07-16T12:24:17;8.98;;;4.03;;
32505;SDS011;18955;51.224;8.482;2023-07-16T12:26:43;7.85;;;3.65;;
32505;SDS011;18955;51.224;8.482;2023-07-16T12:29:10;7.10;;;3.75;;
32505;SDS011;18955;51.224;8.482;2023-07-16T12:31:36;8.45;;;3.60;;
32505;SDS011;18955;51.224;8.482;2023-07-16T12:34:02;8.25;;;4.13;;
32505;SDS011;18955;51.224;8.482;2023-07-16T12:36:29;9.32;;;3.80;;
32505;SDS011;18955;51.224;8.482;2023-07-16T12:38:56;4.93;;;3.33;;
32505;SDS011;18955;51.224;8.482;2023-07-16T12:41:22;7.70;;;3.97;;
32505;SDS011;18955;51.224;8.482;2023-07-16T12:43:48;7.82;;;3.95;;
32505;SDS011;18955;51.224;8.482;2023-07-16T12:46:15;4.97;;;2.70;;
32505;SDS011;18955;51.224;8.482;2023-07-16T12:48:41;7.55;;;3.80;;
32505;SDS011;18955;51.224;8.482;2023-07-16T12:51:07;7.05;;;4.25;;
32505;SDS011;18955;51.224;8.482;2023-07-16T12:53:33;8.80;;;3.80;;
32505;SDS011;18955;51.224;8.482;2023-07-16T12:55:59;9.02;;;4.05;;
32505;SDS011;18955;51.224;8.482;2023-07-16T12:58:26;6.57;;;3.83;;
32505;SDS011;18955;51.224;8.482;2023-07-16T13:00:52;3.63;;;2.85;;
32505;SDS011;18955;51.224;8.482;2023-07-16T13:03:18;5.05;;;2.83;;
32505;SDS011;18955;51.224;8.482;2023-07-16T13:05:44;6.38;;;3.78;;
32505;SDS011;18955;51.224;8.482;2023-07-16T13:08:10;6.18;;;3.90;;
32505;SDS011;18955;51.224;8.482;2023-07-16T13:10:37;6.07;;;3.85;;
32505;SDS011;18955;51.224;8.482;2023-07-16T13:13:04;5.25;;;3.47;;
32505;SDS011;18955;51.224;8.482;2023-07-16T13:15:30;6.35;;;3.53;;
32505;SDS011;18955;51.224;8.482;2023-07-16T13:17:57;5.82;;;3.70;;
32505;SDS011;18955;51.224;8.482;2023-07-16T13:20:24;9.27;;;3.90;;
32505;SDS011;18955;51.224;8.482;2023-07-16T13:22:50;9.38;;;3.80;;
32505;SDS011;18955;51.224;8.482;2023-07-16T13:25:16;6.47;;;3.72;;
32505;SDS011;18955;51.224;8.482;2023-07-16T13:27:43;6.03;;;4.25;;
32505;SDS011;18955;51.224;8.482;2023-07-16T13:30:09;8.93;;;4.10;;
32505;SDS011;18955;51.224;8.482;2023-07-16T13:32:35;6.43;;;4.00;;
32505;SDS011;18955;51.224;8.482;2023-07-16T13:35:02;9.27;;;3.75;;
32505;SDS011;18955;51.224;8.482;2023-07-16T13:37:28;6.72;;;4.10;;
32505;SDS011;18955;51.224;8.482;2023-07-16T13:39:54;5.00;;;3.28;;
32505;SDS011;18955;51.224;8.482;2023-07-16T13:42:20;8.82;;;4.63;;
32505;SDS011;18955;51.224;8.482;2023-07-16T13:44:47;7.60;;;3.83;;
32505;SDS011;18955;51.224;8.482;2023-07-16T13:47:13;5.47;;;3.58;;
32505;SDS011;18955;51.224;8.482;2023-07-16T13:49:39;8.23;;;3.72;;
32505;SDS011;18955;51.224;8.482;2023-07-16T13:52:05;6.03;;;4.00;;
32505;SDS011;18955;51.224;8.482;2023-07-16T13:56:58;9.07;;;3.88;;
32505;SDS011;18955;51.224;8.482;2023-07-16T13:59:24;9.25;;;3.67;;
32505;SDS011;18955;51.224;8.482;2023-07-16T14:01:58;9.23;;;4.05;;
32505;SDS011;18955;51.224;8.482;2023-07-16T14:04:26;8.15;;;3.75;;
32505;SDS011;18955;51.224;8.482;2023-07-16T14:06:53;9.02;;;3.55;;
32505;SDS011;18955;51.224;8.482;2023-07-16T14:09:20;7.25;;;3.45;;
32505;SDS011;18955;51.224;8.482;2023-07-16T14:11:46;7.65;;;3.40;;
32505;SDS011;18955;51.224;8.482;2023-07-16T14:16:40;9.70;;;4.32;;
32505;SDS011;18955;51.224;8.482;2023-07-16T14:19:06;5.72;;;3.55;;
32505;SDS011;18955;51.224;8.482;2023-07-16T14:21:32;6.93;;;3.28;;
32505;SDS011;18955;51.224;8.482;2023-07-16T14:23:58;7.20;;;3.40;;
32505;SDS011;18955;51.224;8.482;2023-07-16T14:26:25;4.97;;;2.60;;
32505;SDS011;18955;51.224;8.482;2023-07-16T14:28:51;10.57;;;3.53;;
32505;SDS011;18955;51.224;8.482;2023-07-16T14:31:17;7.93;;;3.47;;
32505;SDS011;18955;51.224;8.482;2023-07-16T14:33:44;7.20;;;3.47;;
32505;SDS011;18955;51.224;8.482;2023-07-16T14:36:10;8.75;;;3.67;;
32505;SDS011;18955;51.224;8.482;2023-07-16T14:38:37;8.05;;;3.75;;
32505;SDS011;18955;51.224;8.482;2023-07-16T14:41:03;7.85;;;3.58;;
32505;SDS011;18955;51.224;8.482;2023-07-16T14:43:30;5.75;;;3.13;;
32505;SDS011;18955;51.224;8.482;2023-07-16T14:45:56;11.55;;;2.65;;
32505;SDS011;18955;51.224;8.482;2023-07-16T14:48:22;6.78;;;3.10;;
32505;SDS011;18955;51.224;8.482;2023-07-16T14:50:51;7.43;;;3.47;;
32505;SDS011;18955;51.224;8.482;2023-07-16T14:53:18;7.68;;;3.20;;
32505;SDS011;18955;51.224;8.482;2023-07-16T14:55:47;5.22;;;2.95;;
32505;SDS011;18955;51.224;8.482;2023-07-16T14:58:14;5.63;;;3.10;;
32505;SDS011;18955;51.224;8.482;2023-07-16T15:00:43;4.53;;;3.08;;
32505;SDS011;18955;51.224;8.482;2023-07-16T15:03:09;5.97;;;3.05;;
32505;SDS011;18955;51.224;8.482;2023-07-16T15:05:36;8.30;;;4.03;;
32505;SDS011;18955;51.224;8.482;2023-07-16T15:08:03;7.55;;;3.40;;
32505;SDS011;18955;51.224;8.482;2023-07-16T15:12:56;7.47;;;3.30;;
32505;SDS011;18955;51.224;8.482;2023-07-16T15:15:22;5.97;;;3.38;;
32505;SDS011;18955;51.224;8.482;2023-07-16T15:17:48;5.70;;;2.97;;
32505;SDS011;18955;51.224;8.482;2023-07-16T15:20:14;7.38;;;3.45;;
32505;SDS011;18955;51.224;8.482;2023-07-16T15:22:41;15.35;;;3.70;;
32505;SDS011;18955;51.224;8.482;2023-07-16T15:25:07;5.18;;;2.80;;